Time;durP1;ratioP1;P1;durP2;ratioP2;P2;SDS_P1;SDS_P2;PMS_P1;PMS_P2;Temp;Humidity;BMP_temperature;BMP_pressure;BME280_temperature;BME280_humidity;BME280_pressure;Samples;Min_cycle;Max_cycle;Signal;HPM_P1;HPM_P2
2022/03/03 00:00:49;;;;;;;24.88;15.68;;;-2.80;99.90;;;;;;5011986;28;20049;-77
2022/03/03 00:03:14;;;;;;;27.25;16.33;;;-2.90;99.90;;;;;;5012399;28;20506;-77
2022/03/03 00:05:40;;;;;;;30.45;17.50;;;-2.90;99.90;;;;;;5012846;28;20086;-77
2022/03/03 00:08:06;;;;;;;28.23;16.00;;;-2.90;99.90;;;;;;5023831;28;20026;-77
2022/03/03 00:10:31;;;;;;;24.42;15.50;;;-2.90;99.90;;;;;;5028245;28;20045;-77
2022/03/03 00:12:57;;;;;;;32.60;17.48;;;-2.90;99.90;;;;;;5029514;28;20538;-76
2022/03/03 00:15:23;;;;;;;32.53;16.73;;;-2.90;99.90;;;;;;5028866;28;20030;-77
2022/03/03 00:17:48;;;;;;;25.73;16.38;;;-2.70;99.90;;;;;;5027097;28;20109;-77
2022/03/03 00:20:14;;;;;;;26.80;16.13;;;-2.80;99.90;;;;;;5024992;28;20049;-77
2022/03/03 00:22:40;;;;;;;30.90;17.27;;;-2.90;99.90;;;;;;5014288;28;20029;-77
2022/03/03 00:25:06;;;;;;;26.13;17.52;;;-1.60;99.90;;;;;;5013116;28;20065;-79
2022/03/03 00:27:31;;;;;;;25.40;16.23;;;-3.00;99.90;;;;;;5011670;28;20071;-76
2022/03/03 00:29:57;;;;;;;33.70;17.25;;;-3.10;99.90;;;;;;5009698;28;20042;-76
2022/03/03 00:32:23;;;;;;;26.13;16.17;;;-3.10;99.90;;;;;;5011523;28;20034;-76
2022/03/03 00:34:48;;;;;;;31.45;19.52;;;-3.10;99.90;;;;;;5011328;28;20512;-76
2022/03/03 00:37:14;;;;;;;33.65;20.13;;;-3.10;99.90;;;;;;5011314;28;20039;-76
2022/03/03 00:39:40;;;;;;;31.42;18.77;;;-3.00;99.90;;;;;;5010834;28;20045;-76
2022/03/03 00:42:06;;;;;;;35.70;19.17;;;-3.00;99.90;;;;;;5010876;28;20490;-76
2022/03/03 00:44:31;;;;;;;33.92;17.48;;;-3.00;99.90;;;;;;5011331;28;20034;-76
2022/03/03 00:46:57;;;;;;;30.95;18.35;;;-3.10;99.90;;;;;;5011392;28;20030;-76
2022/03/03 00:49:22;;;;;;;32.90;17.63;;;-3.10;99.90;;;;;;4993071;28;20057;-76
2022/03/03 00:51:48;;;;;;;31.90;17.95;;;-3.00;99.90;;;;;;5010270;28;20083;-76
2022/03/03 00:54:13;;;;;;;28.92;17.50;;;-1.80;99.90;;;;;;5010977;28;20079;-76
2022/03/03 00:56:39;;;;;;;31.30;18.55;;;-3.00;99.90;;;;;;5011868;28;20030;-78
2022/03/03 00:59:05;;;;;;;35.85;19.60;;;-2.80;99.90;;;;;;4993522;28;20110;-78
2022/03/03 01:01:31;;;;;;;35.95;19.35;;;-2.70;99.90;;;;;;4993541;28;20494;-78
2022/03/03 01:03:56;;;;;;;36.47;18.70;;;-2.80;99.90;;;;;;5011032;28;20061;-78
2022/03/03 01:06:22;;;;;;;34.90;19.65;;;-2.50;99.90;;;;;;5011344;28;20038;-78
2022/03/03 01:08:48;;;;;;;33.70;19.38;;;-2.40;99.90;;;;;;5010693;28;20033;-78
2022/03/03 01:11:13;;;;;;;35.80;18.92;;;-2.10;99.90;;;;;;5010961;28;20041;-78
2022/03/03 01:13:39;;;;;;;35.80;20.25;;;-2.30;99.90;;;;;;5011328;28;20034;-78
2022/03/03 01:16:04;;;;;;;31.48;18.77;;;-2.20;99.90;;;;;;5010602;28;20033;-78
2022/03/03 01:18:30;;;;;;;30.48;19.05;;;-2.30;99.90;;;;;;5016220;28;20108;-78
2022/03/03 01:20:56;;;;;;;30.50;18.48;;;-2.50;99.90;;;;;;5006236;28;20030;-78
2022/03/03 01:23:22;;;;;;;34.70;17.38;;;-2.50;99.90;;;;;;5019875;28;20040;-78
2022/03/03 01:25:48;;;;;;;27.75;17.10;;;-2.50;99.90;;;;;;5017418;28;20041;-78
2022/03/03 01:28:14;;;;;;;27.15;16.05;;;-2.50;99.90;;;;;;5013703;28;20034;-78
2022/03/03 01:30:39;;;;;;;27.40;16.90;;;-2.50;99.90;;;;;;4996072;28;20495;-78
2022/03/03 01:33:06;;;;;;;27.92;15.65;;;-2.70;99.90;;;;;;5003590;28;20033;-78
2022/03/03 01:35:32;;;;;;;24.58;15.00;;;-2.90;99.90;;;;;;5012779;28;20109;-78
2022/03/03 01:37:58;;;;;;;29.38;16.58;;;-3.00;99.90;;;;;;5012349;28;20049;-78
2022/03/03 01:40:25;;;;;;;38.10;17.67;;;-3.10;99.90;;;;;;5003660;28;20030;-78
2022/03/03 01:42:51;;;;;;;31.10;17.58;;;-3.10;99.90;;;;;;5012865;28;20026;-78
2022/03/03 01:45:17;;;;;;;28.38;16.60;;;-3.30;99.90;;;;;;5012875;28;20034;-78
2022/03/03 01:47:43;;;;;;;29.60;16.77;;;-3.30;99.90;;;;;;5012200;28;20072;-78
2022/03/03 01:50:09;;;;;;;30.95;17.23;;;-3.10;99.90;;;;;;5007133;28;20049;-78
2022/03/03 01:52:34;;;;;;;31.25;16.95;;;-3.10;99.90;;;;;;5012145;28;20098;-78
2022/03/03 01:55:00;;;;;;;31.08;18.17;;;-3.10;99.90;;;;;;5012155;28;20440;-78
2022/03/03 01:57:26;;;;;;;53.90;21.42;;;-3.10;99.90;;;;;;5011973;28;20494;-78
2022/03/03 01:59:52;;;;;;;36.60;19.15;;;-2.90;99.90;;;;;;5000849;28;20172;-78
2022/03/03 02:02:17;;;;;;;39.60;20.88;;;-2.90;99.90;;;;;;5021643;28;20034;-78
2022/03/03 02:04:43;;;;;;;39.53;20.17;;;-2.70;99.90;;;;;;5012498;28;20046;-77
2022/03/03 02:07:10;;;;;;;37.72;20.73;;;-2.60;99.90;;;;;;5014799;28;20049;-77
2022/03/03 02:09:36;;;;;;;32.85;19.80;;;-2.60;99.90;;;;;;5006346;28;20035;-77
2022/03/03 02:12:03;;;;;;;29.10;18.10;;;-2.70;99.90;;;;;;5011916;28;20079;-77
2022/03/03 02:14:28;;;;;;;30.48;18.73;;;-2.70;99.90;;;;;;5010009;28;20042;-77
2022/03/03 02:16:54;;;;;;;37.40;20.15;;;-2.70;99.90;;;;;;5009813;28;20548;-77
2022/03/03 02:19:21;;;;;;;36.13;19.27;;;-2.50;99.90;;;;;;5007618;28;20024;-77
2022/03/03 02:21:48;;;;;;;35.67;19.23;;;-2.40;99.90;;;;;;5010036;28;20079;-77
2022/03/03 02:24:14;;;;;;;32.00;19.75;;;-2.20;99.90;;;;;;5009590;28;20022;-77
2022/03/03 02:26:41;;;;;;;32.15;19.30;;;-2.20;99.90;;;;;;5010221;28;20120;-77
2022/03/03 02:29:07;;;;;;;29.70;18.35;;;-2.20;99.90;;;;;;5005461;28;20514;-77
2022/03/03 02:31:32;;;;;;;32.03;16.90;;;-2.30;99.90;;;;;;5007405;28;20034;-77
2022/03/03 02:33:58;;;;;;;33.38;18.77;;;-2.50;99.90;;;;;;5009949;28;20041;-77
2022/03/03 02:36:27;;;;;;;28.98;17.67;;;-2.50;99.90;;;;;;5010094;28;20432;-77
2022/03/03 02:38:54;;;;;;;31.95;18.10;;;-2.70;99.90;;;;;;5009164;28;20034;-77
2022/03/03 02:41:21;;;;;;;31.77;19.00;;;-2.20;99.90;;;;;;5009237;28;20022;-78
2022/03/03 02:43:46;;;;;;;30.50;18.00;;;-2.80;99.90;;;;;;5009671;28;20037;-77
2022/03/03 02:46:13;;;;;;;27.75;17.23;;;-2.80;99.90;;;;;;4992096;28;20133;-77
2022/03/03 02:48:39;;;;;;;33.40;17.98;;;-2.70;99.90;;;;;;5009034;28;20057;-78
2022/03/03 02:51:05;;;;;;;25.98;16.17;;;-2.70;99.90;;;;;;5009023;28;20041;-77
2022/03/03 02:53:31;;;;;;;26.63;16.00;;;-2.90;99.90;;;;;;5009444;28;20030;-78
2022/03/03 02:55:57;;;;;;;25.88;16.20;;;-3.00;99.90;;;;;;5009843;28;20029;-77
2022/03/03 02:58:22;;;;;;;31.98;18.02;;;-3.20;99.90;;;;;;5009357;28;20034;-77
2022/03/03 03:00:48;;;;;;;28.58;17.25;;;-3.20;99.90;;;;;;4991637;28;20038;-77
2022/03/03 03:03:16;;;;;;;28.30;17.63;;;-3.10;99.90;;;;;;5009676;28;20105;-77
2022/03/03 03:05:42;;;;;;;33.97;17.92;;;-3.20;99.90;;;;;;5009388;28;20036;-77
2022/03/03 03:08:09;;;;;;;36.80;19.40;;;-3.10;99.90;;;;;;5009235;28;20406;-78
2022/03/03 03:10:36;;;;;;;32.75;17.98;;;-2.90;99.90;;;;;;4991258;28;20102;-77
2022/03/03 03:13:02;;;;;;;32.15;16.90;;;-2.80;99.90;;;;;;5009429;28;20033;-78
2022/03/03 03:15:28;;;;;;;28.95;16.55;;;-2.70;99.90;;;;;;5009641;28;20128;-77
2022/03/03 03:17:53;;;;;;;30.48;17.70;;;-2.90;99.90;;;;;;5009489;28;20022;-77
2022/03/03 03:20:19;;;;;;;32.70;18.23;;;-2.90;99.90;;;;;;5008504;28;20030;-78
2022/03/03 03:22:45;;;;;;;32.50;18.58;;;-2.70;99.90;;;;;;5009837;28;20025;-78
2022/03/03 03:25:13;;;;;;;32.22;18.27;;;-2.70;99.90;;;;;;5011233;28;20118;-78
2022/03/03 03:27:41;;;;;;;27.77;16.38;;;-2.80;99.90;;;;;;5011419;28;20030;-78
2022/03/03 03:30:10;;;;;;;36.45;18.95;;;-2.80;99.90;;;;;;5010944;28;20046;-78
2022/03/03 03:32:36;;;;;;;30.13;17.80;;;-1.60;99.90;;;;;;5010830;28;20207;-78
2022/03/03 03:35:04;;;;;;;28.73;17.45;;;-2.50;99.90;;;;;;5011000;28;20053;-78
2022/03/03 03:37:30;;;;;;;29.27;17.00;;;-0.50;99.90;;;;;;5011639;28;20466;-78
2022/03/03 03:39:56;;;;;;;25.48;15.82;;;-2.60;99.90;;;;;;5010924;28;20109;-78
2022/03/03 03:42:22;;;;;;;24.80;16.15;;;-2.60;99.90;;;;;;5013138;28;20371;-78
2022/03/03 03:44:47;;;;;;;27.65;16.77;;;-2.80;99.90;;;;;;5026632;28;20041;-78
2022/03/03 03:47:13;;;;;;;33.22;18.15;;;-2.80;99.90;;;;;;5026964;28;20030;-77
2022/03/03 03:49:39;;;;;;;28.88;17.15;;;-2.60;99.90;;;;;;5026308;28;20037;-78
2022/03/03 03:52:05;;;;;;;31.50;18.17;;;-2.70;99.90;;;;;;5026265;28;20082;-77
2022/03/03 03:54:31;;;;;;;26.25;16.70;;;-2.50;99.90;;;;;;5025705;28;20025;-77
2022/03/03 03:56:57;;;;;;;33.53;17.20;;;-2.50;99.90;;;;;;5012579;28;20378;-78
2022/03/03 03:59:22;;;;;;;30.30;17.65;;;-2.50;99.90;;;;;;5010282;28;20423;-78
2022/03/03 04:01:48;;;;;;;29.05;17.27;;;-2.40;99.90;;;;;;4992900;28;20034;-78
2022/03/03 04:04:14;;;;;;;29.30;16.80;;;-2.50;99.90;;;;;;5013797;28;20539;-78
2022/03/03 04:06:40;;;;;;;31.15;16.65;;;-2.60;99.90;;;;;;5015929;28;20085;-77
2022/03/03 04:09:06;;;;;;;30.85;19.42;;;-2.60;99.90;;;;;;5015017;28;20057;-76
2022/03/03 04:11:31;;;;;;;30.88;17.83;;;-2.70;99.90;;;;;;5015940;28;20133;-77
2022/03/03 04:13:57;;;;;;;33.63;19.13;;;-2.80;99.90;;;;;;4998900;28;20589;-78
2022/03/03 04:16:26;;;;;;;30.13;17.50;;;-2.90;99.90;;;;;;4998258;28;20026;-79
2022/03/03 04:18:52;;;;;;;30.40;17.40;;;-2.80;99.90;;;;;;5016116;28;20026;-77
2022/03/03 04:21:18;;;;;;;26.35;16.92;;;-2.80;99.90;;;;;;5018164;28;20018;-77
2022/03/03 04:23:44;;;;;;;35.55;18.17;;;-2.90;99.90;;;;;;5019186;28;20060;-78
2022/03/03 04:26:09;;;;;;;28.67;16.13;;;-2.90;99.90;;;;;;5018921;28;20095;-77
2022/03/03 04:28:36;;;;;;;29.48;17.05;;;-2.80;99.90;;;;;;5017623;28;20037;-78
2022/03/03 04:31:02;;;;;;;28.60;15.88;;;-3.20;99.90;;;;;;5015203;28;20086;-78
2022/03/03 04:33:27;;;;;;;30.35;17.83;;;-1.60;99.90;;;;;;5014760;28;20038;-78
2022/03/03 04:35:53;;;;;;;30.98;17.10;;;-3.10;99.90;;;;;;5015771;28;20033;-78
2022/03/03 04:38:19;;;;;;;30.23;17.17;;;-3.10;99.90;;;;;;5015163;28;20033;-77
2022/03/03 04:40:45;;;;;;;29.38;18.02;;;-3.00;99.90;;;;;;5014942;28;20057;-78
2022/03/03 04:43:10;;;;;;;33.03;18.40;;;-3.00;99.90;;;;;;5015732;28;20079;-78
2022/03/03 04:45:36;;;;;;;36.28;18.33;;;-3.10;99.90;;;;;;5016180;28;20383;-78
2022/03/03 04:48:02;;;;;;;30.85;17.80;;;-3.00;99.90;;;;;;5016065;28;20448;-78
2022/03/03 04:50:28;;;;;;;34.72;19.20;;;-2.90;99.90;;;;;;5015735;28;20040;-78
2022/03/03 04:52:53;;;;;;;30.58;17.63;;;-1.80;99.90;;;;;;5016439;28;20484;-77
2022/03/03 04:55:19;;;;;;;32.17;18.35;;;-2.70;99.90;;;;;;5015972;28;20093;-77
2022/03/03 04:57:45;;;;;;;30.90;16.90;;;-2.80;99.90;;;;;;5016615;28;20048;-78
2022/03/03 05:00:11;;;;;;;30.85;18.13;;;-2.60;99.90;;;;;;5017297;28;20048;-78
2022/03/03 05:02:36;;;;;;;28.92;16.23;;;-2.80;99.90;;;;;;5014291;28;20042;-77
2022/03/03 05:05:03;;;;;;;31.58;17.13;;;-2.90;99.90;;;;;;5014003;28;20034;-77
2022/03/03 05:07:29;;;;;;;31.20;17.33;;;-3.20;99.90;;;;;;5012851;28;20508;-77
2022/03/03 05:09:54;;;;;;;34.00;18.20;;;-3.20;99.90;;;;;;5012236;28;20093;-78
2022/03/03 05:12:20;;;;;;;29.58;17.02;;;-3.20;99.90;;;;;;5013348;28;20406;-77
2022/03/03 05:14:46;;;;;;;32.17;16.85;;;-3.30;99.90;;;;;;5012560;28;20436;-77
2022/03/03 05:17:11;;;;;;;29.00;16.67;;;-3.30;99.90;;;;;;4996212;28;20030;-78
2022/03/03 05:19:37;;;;;;;26.35;16.45;;;-3.30;99.90;;;;;;5013042;28;20105;-77
2022/03/03 05:22:02;;;;;;;27.23;16.73;;;-3.50;99.90;;;;;;5014220;28;20038;-78
2022/03/03 05:24:28;;;;;;;27.42;15.70;;;-3.40;99.90;;;;;;4997619;28;20033;-78
2022/03/03 05:26:54;;;;;;;30.42;17.02;;;-3.40;99.90;;;;;;5014111;28;20111;-76
2022/03/03 05:29:19;;;;;;;32.47;17.65;;;-3.40;99.90;;;;;;5013707;28;20030;-78
2022/03/03 05:31:45;;;;;;;30.63;16.58;;;-2.30;99.90;;;;;;5013820;28;20112;-78
2022/03/03 05:34:11;;;;;;;32.30;18.70;;;-3.10;99.90;;;;;;5014410;28;20038;-78
2022/03/03 05:36:39;;;;;;;31.88;18.55;;;-3.20;99.90;;;;;;5014537;28;20041;-77
2022/03/03 05:39:05;;;;;;;31.48;17.13;;;-3.20;99.90;;;;;;5013507;28;20069;-76
2022/03/03 05:41:31;;;;;;;32.60;17.48;;;-3.30;99.90;;;;;;5015284;28;20054;-76
2022/03/03 05:43:58;;;;;;;34.63;19.23;;;-3.10;99.90;;;;;;5017205;28;20034;-76
2022/03/03 05:46:23;;;;;;;32.05;18.58;;;-3.00;99.90;;;;;;5017262;28;20026;-77
2022/03/03 05:48:50;;;;;;;28.77;17.50;;;-3.10;99.90;;;;;;5016255;28;20590;-77
2022/03/03 05:51:16;;;;;;;28.67;16.83;;;-3.10;99.90;;;;;;5019596;28;20037;-78
2022/03/03 05:53:43;;;;;;;30.63;17.17;;;-3.40;99.90;;;;;;5019446;28;20034;-79
2022/03/03 05:56:10;;;;;;;32.25;18.67;;;-3.20;99.90;;;;;;5018604;28;20032;-78
2022/03/03 05:58:43;;;;;;;32.60;18.50;;;-3.20;99.90;;;;;;5013737;28;20063;-77
2022/03/03 06:01:11;;;;;;;33.42;19.00;;;-3.30;99.90;;;;;;5015847;28;20032;-78
2022/03/03 06:03:37;;;;;;;37.90;18.98;;;-3.30;99.90;;;;;;5014490;28;20390;-78
2022/03/03 06:06:25;;;;;;;35.08;20.70;;;-3.20;99.90;;;;;;5015403;28;20026;-77
2022/03/03 06:09:04;;;;;;;35.70;19.17;;;-3.20;99.90;;;;;;4996059;28;20026;-77
2022/03/03 06:11:30;;;;;;;30.73;17.50;;;-3.30;99.90;;;;;;5012244;28;20118;-77
2022/03/03 06:14:07;;;;;;;28.63;16.90;;;-3.50;99.90;;;;;;5012478;28;20025;-78
2022/03/03 06:16:35;;;;;;;31.42;17.17;;;-3.70;99.90;;;;;;5012660;28;20087;-78
2022/03/03 06:19:01;;;;;;;29.33;17.10;;;-3.80;99.90;;;;;;5012945;28;20372;-77
2022/03/03 06:21:27;;;;;;;37.83;23.02;;;-3.90;99.90;;;;;;5013348;28;20097;-80
2022/03/03 06:23:53;;;;;;;33.15;19.38;;;-3.80;99.90;;;;;;5015228;28;20057;-78
2022/03/03 06:26:19;;;;;;;37.17;18.77;;;-2.30;99.90;;;;;;5018649;28;20034;-79
2022/03/03 06:28:46;;;;;;;36.47;18.70;;;-3.70;99.90;;;;;;5017590;28;20059;-78
2022/03/03 06:31:12;;;;;;;34.90;19.08;;;-3.40;99.90;;;;;;5013815;28;20107;-78
2022/03/03 06:33:38;;;;;;;31.15;18.75;;;-3.20;99.90;;;;;;4993869;28;20033;-77
2022/03/03 06:36:06;;;;;;;38.78;21.02;;;-3.10;99.90;;;;;;4992727;28;20030;-77
2022/03/03 06:38:32;;;;;;;31.08;16.88;;;-3.00;99.90;;;;;;4992565;28;20471;-78
2022/03/03 06:40:58;;;;;;;32.85;17.13;;;-3.10;99.90;;;;;;5012509;28;20040;-77
2022/03/03 06:43:25;;;;;;;28.83;15.95;;;-3.10;99.90;;;;;;5011147;28;20030;-75
2022/03/03 06:45:51;;;;;;;27.27;15.88;;;-3.10;99.90;;;;;;4991966;28;20034;-75
2022/03/03 06:48:16;;;;;;;28.48;16.88;;;-3.20;99.90;;;;;;4993404;28;20034;-76
2022/03/03 06:50:43;;;;;;;32.60;18.27;;;-3.30;99.90;;;;;;4989384;28;20092;-75
2022/03/03 06:53:09;;;;;;;36.30;19.67;;;-3.20;99.90;;;;;;4989719;28;20030;-77
2022/03/03 06:55:36;;;;;;;36.60;19.80;;;-3.30;99.90;;;;;;4990105;28;20113;-77
2022/03/03 06:58:03;;;;;;;30.95;18.27;;;-3.20;99.90;;;;;;4989466;28;20052;-76
2022/03/03 07:00:34;;;;;;;33.45;18.40;;;-3.30;99.90;;;;;;5003520;28;20038;-77
2022/03/03 07:03:01;;;;;;;37.80;19.10;;;-3.30;99.90;;;;;;5008914;28;20022;-75
2022/03/03 07:05:28;;;;;;;35.90;18.58;;;-3.10;99.90;;;;;;5009292;28;20036;-77
2022/03/03 07:07:55;;;;;;;40.00;19.83;;;-3.00;99.90;;;;;;5009158;28;20030;-76
2022/03/03 07:10:25;;;;;;;34.75;18.50;;;-2.80;99.90;;;;;;5008097;28;20030;-76
2022/03/03 07:12:52;;;;;;;31.52;18.88;;;-2.60;99.90;;;;;;5009161;28;20026;-78
2022/03/03 07:15:18;;;;;;;34.00;18.85;;;-2.60;99.90;;;;;;5008985;28;20123;-77
2022/03/03 07:17:46;;;;;;;37.70;20.10;;;-2.60;99.90;;;;;;4999286;28;20468;-77
2022/03/03 07:20:17;;;;;;;35.95;20.13;;;-2.60;99.90;;;;;;5004952;28;20128;-76
2022/03/03 07:23:03;;;;;;;37.25;20.88;;;-2.50;99.90;;;;;;4981352;28;20109;-77
2022/03/03 07:25:41;;;;;;;37.28;20.42;;;-2.20;99.90;;;;;;5002752;28;20130;-77
2022/03/03 07:28:09;;;;;;;38.42;21.55;;;-2.20;99.90;;;;;;5006158;28;20038;-78
2022/03/03 07:30:43;;;;;;;38.80;20.48;;;-2.00;99.90;;;;;;4997598;28;20367;-77
2022/03/03 07:33:18;;;;;;;32.25;19.42;;;-1.90;99.90;;;;;;4987165;28;20397;-77
2022/03/03 07:35:48;;;;;;;31.40;19.50;;;0.20;99.90;;;;;;5004228;28;20045;-78
2022/03/03 07:38:23;;;;;;;33.22;19.92;;;0.60;99.90;;;;;;5006572;28;20026;-78
2022/03/03 07:40:49;;;;;;;31.80;18.80;;;-1.30;99.90;;;;;;5008182;28;20368;-78
2022/03/03 07:43:17;;;;;;;33.30;19.38;;;0.70;99.90;;;;;;5007963;28;20096;-78
2022/03/03 07:45:43;;;;;;;33.50;18.08;;;-1.30;99.90;;;;;;5007834;28;20133;-78
2022/03/03 07:48:11;;;;;;;33.17;18.13;;;-1.20;99.90;;;;;;4993747;28;20475;-78
2022/03/03 07:50:41;;;;;;;30.30;18.98;;;-1.10;99.90;;;;;;5006807;28;20119;-77
2022/03/03 07:53:12;;;;;;;28.35;17.77;;;-1.00;99.90;;;;;;5007834;28;20041;-77
2022/03/03 07:55:50;;;;;;;30.98;17.30;;;-0.90;99.90;;;;;;5007847;28;20030;-78
2022/03/03 07:58:21;;;;;;;29.58;18.15;;;-0.90;99.90;;;;;;5007506;28;20022;-78
2022/03/03 08:00:53;;;;;;;31.02;17.35;;;-0.80;99.90;;;;;;5006845;28;20517;-78
2022/03/03 08:03:20;;;;;;;30.38;17.70;;;-0.60;99.90;;;;;;5008366;28;20026;-76
2022/03/03 08:05:48;;;;;;;36.92;18.05;;;-0.30;99.90;;;;;;5007441;28;20038;-76
2022/03/03 08:08:16;;;;;;;33.97;19.60;;;-0.20;99.90;;;;;;5009698;28;20034;-75
2022/03/03 08:10:44;;;;;;;28.92;17.92;;;0.00;99.90;;;;;;5010974;28;20026;-74
2022/03/03 08:13:17;;;;;;;31.45;17.45;;;0.20;99.90;;;;;;5012007;28;20079;-75
2022/03/03 08:15:44;;;;;;;30.15;17.45;;;0.30;99.90;;;;;;5011889;28;20076;-75
2022/03/03 08:18:11;;;;;;;28.02;17.33;;;0.40;99.90;;;;;;5011682;28;20413;-75
2022/03/03 08:20:38;;;;;;;28.13;16.88;;;0.50;99.90;;;;;;5007922;28;20022;-77
2022/03/03 08:23:06;;;;;;;29.52;17.35;;;0.70;99.90;;;;;;4992306;28;20088;-76
2022/03/03 08:25:32;;;;;;;25.73;15.60;;;3.30;99.90;;;;;;4991887;28;20031;-77
2022/03/03 08:27:58;;;;;;;25.40;16.33;;;1.00;99.90;;;;;;4992234;28;20390;-75
2022/03/03 08:30:24;;;;;;;27.52;16.85;;;1.20;99.90;;;;;;4974996;28;20102;-75
2022/03/03 08:33:08;;;;;;;28.60;17.90;;;2.30;99.90;;;;;;5006912;28;20498;-76
2022/03/03 08:35:36;;;;;;;31.55;17.55;;;1.50;99.90;;;;;;4991928;28;20099;-75
2022/03/03 08:38:10;;;;;;;28.85;16.20;;;2.60;99.90;;;;;;5006833;28;20364;-76
2022/03/03 08:40:36;;;;;;;29.75;15.93;;;1.90;99.90;;;;;;4990508;28;20034;-76
2022/03/03 08:43:06;;;;;;;29.30;15.55;;;1.90;99.90;;;;;;5009961;28;20033;-74
2022/03/03 08:45:35;;;;;;;26.48;15.70;;;2.10;99.90;;;;;;5011255;28;20070;-75
2022/03/03 08:48:06;;;;;;;31.00;16.52;;;3.80;99.90;;;;;;5011150;28;20396;-75
2022/03/03 08:50:35;;;;;;;28.95;15.77;;;3.10;99.90;;;;;;4989873;28;20030;-75
2022/03/03 08:53:01;;;;;;;24.60;14.68;;;4.00;99.90;;;;;;4991664;28;20482;-77
2022/03/03 08:55:27;;;;;;;25.38;14.57;;;4.60;99.90;;;;;;4992626;28;20487;-76
2022/03/03 08:57:53;;;;;;;22.92;15.07;;;6.10;99.90;;;;;;4991955;28;20019;-79
2022/03/03 09:00:19;;;;;;;22.92;14.43;;;4.70;99.90;;;;;;4991327;28;20022;-78
2022/03/03 09:02:47;;;;;;;22.48;13.93;;;5.00;99.90;;;;;;5011331;28;20462;-78
2022/03/03 09:05:13;;;;;;;27.95;13.43;;;5.70;99.90;;;;;;5011791;28;20071;-78
2022/03/03 09:07:39;;;;;;;26.35;13.63;;;6.40;99.90;;;;;;5011322;28;20050;-78
2022/03/03 09:10:06;;;;;;;21.98;13.38;;;6.90;99.90;;;;;;5010264;28;20691;-78
2022/03/03 09:12:32;;;;;;;21.23;12.40;;;8.00;99.90;;;;;;5010565;28;20109;-77
2022/03/03 09:14:58;;;;;;;20.33;12.95;;;9.00;99.00;;;;;;5011814;28;20058;-78
2022/03/03 09:17:23;;;;;;;21.10;13.38;;;10.30;94.70;;;;;;5002649;28;20439;-79
2022/03/03 09:19:49;;;;;;;19.23;13.15;;;10.50;91.70;;;;;;5002613;28;20114;-79
2022/03/03 09:22:15;;;;;;;22.20;12.75;;;11.90;91.40;;;;;;4995631;28;20113;-78
2022/03/03 09:24:41;;;;;;;19.27;12.80;;;11.30;88.60;;;;;;5011694;28;20038;-78
2022/03/03 09:27:07;;;;;;;18.67;12.40;;;10.90;85.40;;;;;;5011702;28;20056;-79
2022/03/03 09:29:33;;;;;;;20.50;14.32;;;10.70;84.70;;;;;;5011421;28;20030;-79
2022/03/03 09:32:09;;;;;;;21.27;12.93;;;11.00;82.90;;;;;;5011511;28;20034;-79
2022/03/03 09:34:35;;;;;;;19.20;12.82;;;11.30;82.90;;;;;;4993062;28;20027;-79
2022/03/03 09:37:01;;;;;;;17.52;13.18;;;11.60;84.80;;;;;;4992685;28;20045;-78
2022/03/03 09:39:27;;;;;;;18.60;13.27;;;11.90;78.40;;;;;;4990447;28;20394;-78
2022/03/03 09:41:53;;;;;;;18.40;12.68;;;12.10;78.20;;;;;;4985945;28;20030;-78
2022/03/03 09:44:23;;;;;;;18.70;12.65;;;12.20;77.30;;;;;;5010569;28;20030;-79
2022/03/03 09:46:49;;;;;;;21.15;12.45;;;14.20;79.90;;;;;;5010646;28;20368;-78
2022/03/03 09:49:15;;;;;;;18.33;12.43;;;11.80;78.20;;;;;;5000280;28;20034;-79
2022/03/03 09:51:40;;;;;;;20.05;12.30;;;12.30;78.90;;;;;;4974338;28;20483;-79
2022/03/03 09:54:07;;;;;;;17.73;12.05;;;13.40;75.00;;;;;;5010103;28;20036;-80
2022/03/03 09:56:33;;;;;;;19.75;12.55;;;13.40;72.70;;;;;;5010516;28;20022;-80
2022/03/03 09:58:58;;;;;;;18.38;12.57;;;13.90;70.50;;;;;;5009667;28;20083;-77
2022/03/03 10:01:28;;;;;;;20.23;12.27;;;14.00;69.60;;;;;;5009354;28;20030;-78
2022/03/03 10:03:57;;;;;;;21.15;13.45;;;13.70;70.00;;;;;;5010572;28;20030;-76
2022/03/03 10:06:23;;;;;;;19.95;12.85;;;13.30;73.60;;;;;;5010368;28;20080;-78
2022/03/03 10:08:50;;;;;;;19.10;12.60;;;13.60;70.40;;;;;;4991979;28;20029;-77
2022/03/03 10:11:16;;;;;;;17.88;12.35;;;14.20;68.60;;;;;;5010431;28;20026;-79
2022/03/03 10:13:50;;;;;;;17.20;12.48;;;14.60;67.40;;;;;;4992855;28;20038;-78
2022/03/03 10:16:24;;;;;;;18.98;13.10;;;16.60;64.60;;;;;;5009958;28;20030;-77
2022/03/03 10:19:03;;;;;;;18.65;12.25;;;15.10;62.50;;;;;;4996628;28;20390;-77
2022/03/03 10:21:30;;;;;;;17.55;12.88;;;15.00;62.10;;;;;;5009625;28;20022;-77
2022/03/03 10:23:57;;;;;;;20.98;12.50;;;15.50;61.20;;;;;;5009771;28;20026;-77
2022/03/03 10:26:34;;;;;;;20.90;13.10;;;16.40;60.00;;;;;;5011661;28;20058;-77
2022/03/03 10:29:00;;;;;;;19.48;13.05;;;15.30;62.00;;;;;;5009366;28;20390;-78
2022/03/03 10:31:27;;;;;;;21.30;13.20;;;16.40;62.50;;;;;;5009316;28;20026;-79
2022/03/03 10:34:03;;;;;;;17.30;12.48;;;16.00;61.40;;;;;;5009936;28;20025;-78
2022/03/03 10:36:32;;;;;;;18.67;13.07;;;14.60;60.90;;;;;;5009801;28;20029;-78
2022/03/03 10:38:59;;;;;;;20.35;13.68;;;15.10;60.90;;;;;;5009024;28;20030;-79
2022/03/03 10:41:42;;;;;;;18.13;12.32;;;15.60;60.80;;;;;;5010074;28;20488;-77
2022/03/03 10:44:09;;;;;;;20.55;13.05;;;15.70;61.30;;;;;;5014642;28;20042;-79
2022/03/03 10:46:38;;;;;;;17.92;12.77;;;16.70;58.00;;;;;;5014312;28;20022;-80
2022/03/03 10:49:20;;;;;;;21.38;14.25;;;18.30;58.90;;;;;;5018294;28;20045;-80
2022/03/03 10:51:45;;;;;;;19.13;12.13;;;15.50;60.60;;;;;;4997479;28;20412;-80
2022/03/03 10:54:11;;;;;;;20.42;14.20;;;15.90;59.90;;;;;;5023656;28;20121;-81
2022/03/03 10:56:46;;;;;;;22.55;14.00;;;17.60;58.90;;;;;;5016346;28;20033;-80
2022/03/03 10:59:24;;;;;;;20.23;13.38;;;17.20;56.90;;;;;;5014589;28;20038;-80
2022/03/03 11:01:52;;;;;;;16.77;12.90;;;17.70;53.90;;;;;;5003246;28;20045;-81
2022/03/03 11:04:19;;;;;;;18.75;13.63;;;16.60;57.20;;;;;;5000416;28;20037;-80
2022/03/03 11:06:48;;;;;;;17.17;12.82;;;16.50;58.20;;;;;;5005536;28;20033;-80
2022/03/03 11:09:15;;;;;;;22.13;13.57;;;17.30;57.10;;;;;;5004954;28;20056;-81
2022/03/03 11:11:41;;;;;;;18.23;13.90;;;17.20;55.40;;;;;;5001511;28;20498;-79
2022/03/03 11:14:06;;;;;;;22.40;14.43;;;16.80;56.90;;;;;;4990670;28;20105;-77
2022/03/03 11:16:33;;;;;;;21.05;13.55;;;16.00;56.50;;;;;;4975316;28;20442;-79
2022/03/03 11:18:59;;;;;;;18.70;14.10;;;16.70;58.90;;;;;;4993566;28;20029;-79
2022/03/03 11:21:25;;;;;;;19.65;13.20;;;16.00;57.70;;;;;;5001668;28;20022;-79
2022/03/03 11:23:58;;;;;;;19.23;13.57;;;16.50;58.50;;;;;;4999094;28;20486;-78
2022/03/03 11:26:40;;;;;;;19.02;13.55;;;17.10;56.40;;;;;;5011871;28;20033;-80
2022/03/03 11:29:15;;;;;;;22.23;14.30;;;17.30;53.50;;;;;;4999132;28;20409;-77
2022/03/03 11:32:00;;;;;;;20.45;14.15;;;19.90;56.20;;;;;;5012954;28;20176;-77
2022/03/03 11:34:46;;;;;;;21.67;13.65;;;18.50;54.30;;;;;;5003621;28;20026;-78
2022/03/03 11:37:21;;;;;;;20.67;14.38;;;18.40;51.50;;;;;;5006065;28;20042;-80
2022/03/03 11:39:59;;;;;;;20.95;13.48;;;18.10;52.80;;;;;;5013399;28;20110;-77
2022/03/03 11:42:34;;;;;;;20.73;13.73;;;18.90;53.80;;;;;;5018640;28;20026;-79
2022/03/03 11:45:29;;;;;;;20.50;14.20;;;17.90;52.30;;;;;;5010246;28;20030;-79
2022/03/03 11:48:12;;;;;;;19.88;14.20;;;18.00;54.00;;;;;;5010891;28;20018;-79
2022/03/03 11:50:39;;;;;;;21.48;14.32;;;18.20;53.30;;;;;;5006839;28;20026;-80
2022/03/03 11:53:10;;;;;;;17.13;14.55;;;19.60;50.10;;;;;;4990470;28;20030;-79
2022/03/03 11:55:43;;;;;;;20.67;14.95;;;20.00;49.20;;;;;;4991355;28;20507;-81
2022/03/03 11:58:09;;;;;;;;;;;20.30;48.20;;;;;;4994072;28;20026;-79
2022/03/03 12:00:47;;;;;;;20.40;15.23;;;20.00;48.60;;;;;;4997266;28;19914;-79
2022/03/03 12:03:14;;;;;;;20.17;14.07;;;18.90;48.50;;;;;;4976045;28;20383;-82
2022/03/03 12:05:45;;;;;;;18.30;13.80;;;19.70;49.30;;;;;;4992269;28;20027;-80
2022/03/03 12:08:16;;;;;;;22.27;14.85;;;21.50;49.20;;;;;;4994634;28;20486;-82
2022/03/03 12:11:07;;;;;;;21.05;14.88;;;19.60;47.50;;;;;;4994282;28;20405;-79
2022/03/03 12:13:40;;;;;;;18.33;14.00;;;19.40;47.00;;;;;;5009037;28;20026;-78
2022/03/03 12:16:33;;;;;;;24.00;15.77;;;20.00;45.80;;;;;;5008827;28;20030;-80
2022/03/03 12:19:02;;;;;;;22.90;14.23;;;20.20;46.80;;;;;;4998711;28;20026;-81
2022/03/03 12:21:29;;;;;;;16.88;14.35;;;20.60;47.20;;;;;;4996360;28;20023;-79
2022/03/03 12:24:13;;;;;;;20.23;15.18;;;20.40;47.30;;;;;;4990444;28;20022;-79
2022/03/03 12:26:59;;;;;;;20.90;14.75;;;20.20;48.30;;;;;;4991964;28;20096;-83
2022/03/03 12:29:49;;;;;;;19.50;14.43;;;19.40;47.40;;;;;;5003757;28;20042;-83
2022/03/03 12:32:35;;;;;;;20.27;14.68;;;18.80;48.30;;;;;;5013527;28;20022;-82